Time;durP1;ratioP1;P1;durP2;ratioP2;P2;SDS_P1;SDS_P2;PMS_P1;PMS_P2;Temp;Humidity;BMP_temperature;BMP_pressure;BME280_temperature;BME280_humidity;BME280_pressure;Samples;Min_cycle;Max_cycle;Signal;HPM_P1;HPM_P2
2021/07/12 05:01:34;;;;;;;5.97;5.45;;;;;;;24.16;64.75;94693.63;5462309;23;20740;-75
2021/07/12 05:04:03;;;;;;;5.75;5.28;;;;;;;24.44;64.86;94698.44;4965349;28;20126;-75
2021/07/12 05:06:28;;;;;;;7.15;6.57;;;;;;;25.21;61.04;94697.41;4967455;28;20023;-74
2021/07/12 05:08:55;;;;;;;6.07;5.68;;;;;;;24.81;62.34;94695.56;4949597;28;20042;-75
2021/07/12 05:11:20;;;;;;;6.68;5.90;;;;;;;25.35;60.88;94696.59;4967195;28;20038;-75
2021/07/12 05:13:46;;;;;;;7.53;5.50;;;;;;;26.52;58.56;94703.03;4950757;28;20412;-75
2021/07/12 05:16:11;;;;;;;6.60;5.50;;;;;;;27.75;53.93;94697.19;4963009;28;20027;-75
2021/07/12 05:18:38;;;;;;;5.55;5.15;;;;;;;29.14;50.97;94701.16;4947272;28;20046;-75
2021/07/12 05:21:03;;;;;;;6.05;5.00;;;;;;;30.18;48.51;94712.06;4960137;28;20027;-75
2021/07/12 05:23:29;;;;;;;6.30;5.22;;;;;;;29.40;48.62;94705.00;4959901;28;20409;-75
2021/07/12 05:25:55;;;;;;;5.78;5.22;;;;;;;30.76;46.30;94702.22;4964383;28;20054;-75
2021/07/12 05:28:21;;;;;;;5.88;5.40;;;;;;;29.64;48.39;94694.94;4950013;28;20109;-75
2021/07/12 05:30:46;;;;;;;5.97;5.38;;;;;;;31.07;44.67;94701.53;4964400;28;20466;-74
2021/07/12 05:33:12;;;;;;;5.05;4.68;;;;;;;31.10;45.16;94698.25;4933867;28;20042;-76
2021/07/12 05:35:37;;;;;;;5.15;4.80;;;;;;;31.97;42.54;94694.91;4947838;28;20038;-75
2021/07/12 05:38:04;;;;;;;5.30;4.88;;;;;;;32.88;40.28;94695.69;4946074;28;20488;-76
2021/07/12 05:40:29;;;;;;;7.70;5.28;;;;;;;32.88;40.40;94696.47;4949079;28;20085;-76
2021/07/12 05:42:55;;;;;;;5.57;5.07;;;;;;;32.53;40.43;94686.81;4965442;28;20085;-76
2021/07/12 05:45:20;;;;;;;5.30;4.85;;;;;;;32.36;41.45;94701.03;4948864;28;20030;-76
2021/07/12 05:47:46;;;;;;;5.32;4.85;;;;;;;30.88;44.15;94706.25;4965780;28;20477;-75
2021/07/12 05:50:14;;;;;;;5.10;4.70;;;;;;;31.66;42.37;94701.09;4948993;28;20089;-75
2021/07/12 05:52:39;;;;;;;5.38;4.88;;;;;;;32.83;40.84;94704.72;4949567;28;20042;-76
2021/07/12 05:55:05;;;;;;;5.13;4.45;;;;;;;32.65;39.76;94694.28;4965527;28;20027;-76
2021/07/12 05:57:31;;;;;;;5.22;4.82;;;;;;;32.71;41.31;94693.81;4934250;28;20645;-75
2021/07/12 05:59:56;;;;;;;5.00;4.57;;;;;;;33.55;40.39;94695.94;4928165;29;20023;-77
2021/07/12 06:02:22;;;;;;;5.38;4.97;;;;;;;32.61;40.92;94702.19;4930907;29;20055;-76
2021/07/12 06:04:47;;;;;;;4.97;4.57;;;;;;;33.64;40.40;94699.41;4944911;29;20024;-77
2021/07/12 06:07:13;;;;;;;5.38;4.88;;;;;;;32.12;41.89;94699.84;4955693;28;20022;-77
2021/07/12 06:09:38;;;;;;;4.93;4.63;;;;;;;32.65;42.08;94713.06;4961577;28;20050;-77
2021/07/12 06:12:04;;;;;;;5.43;4.90;;;;;;;32.72;41.11;94702.66;4969281;28;20101;-77
2021/07/12 06:14:30;;;;;;;4.90;4.60;;;;;;;34.78;38.00;94700.03;4947451;28;20029;-75
2021/07/12 06:16:55;;;;;;;4.90;4.60;;;;;;;33.08;40.28;94705.00;4960587;28;20102;-77
2021/07/12 06:19:21;;;;;;;5.30;4.82;;;;;;;34.48;38.42;94703.88;4963044;28;20649;-77
2021/07/12 06:21:47;;;;;;;5.55;4.65;;;;;;;35.77;35.18;94706.22;4946081;28;20026;-78
2021/07/12 06:24:13;;;;;;;7.03;5.00;;;;;;;32.96;39.68;94699.47;4967940;28;20031;-77
2021/07/12 06:26:38;;;;;;;5.18;4.72;;;;;;;33.65;38.75;94709.00;4946891;28;20104;-77
2021/07/12 06:29:04;;;;;;;5.15;4.72;;;;;;;33.96;39.23;94710.66;4967330;28;20074;-77
2021/07/12 06:31:29;;;;;;;5.80;5.22;;;;;;;33.51;39.43;94704.94;4945993;28;20035;-77
2021/07/12 06:33:55;;;;;;;5.20;4.78;;;;;;;34.26;37.86;94698.81;4927663;28;20513;-76
2021/07/12 06:36:20;;;;;;;5.40;4.97;;;;;;;34.40;37.03;94694.75;4971001;28;20029;-76
2021/07/12 06:38:46;;;;;;;5.70;5.22;;;;;;;33.55;39.90;94701.28;4977648;28;20027;-77
2021/07/12 06:41:11;;;;;;;6.50;5.80;;;;;;;34.06;37.87;94696.84;4976804;28;20031;-76
2021/07/12 06:43:37;;;;;;;5.85;5.25;;;;;;;32.68;40.40;94709.75;4953474;28;20039;-77
2021/07/12 06:46:02;;;;;;;5.80;5.18;;;;;;;28.83;49.92;94702.75;4968941;28;20035;-77
2021/07/12 06:48:28;;;;;;;6.00;5.50;;;;;;;29.14;50.11;94703.81;4968251;28;20022;-76
2021/07/12 06:50:54;;;;;;;7.75;5.30;;;;;;;28.75;49.55;94704.97;4914755;28;20134;-76
2021/07/12 06:53:19;;;;;;;4.95;4.55;;;;;;;29.66;48.08;94706.13;4966915;28;20109;-76
2021/07/12 06:55:44;;;;;;;5.60;5.18;;;;;;;30.65;46.18;94698.22;4967511;28;20034;-77
2021/07/12 06:58:12;;;;;;;5.68;5.15;;;;;;;32.92;41.17;94699.31;4950092;28;20499;-77
2021/07/12 07:00:39;;;;;;;5.78;5.30;;;;;;;34.29;39.75;94703.53;4965909;28;20054;-77
2021/07/12 07:03:04;;;;;;;6.20;5.57;;;;;;;36.40;35.80;94695.91;4953031;28;20038;-77
2021/07/12 07:05:30;;;;;;;6.15;5.32;;;;;;;33.86;39.30;94704.53;4966569;28;20459;-77
2021/07/12 07:07:56;;;;;;;7.20;5.13;;;;;;;29.15;48.65;94708.09;4962375;28;21471;-74
2021/07/12 07:10:22;;;;;;;7.07;5.18;;;;;;;30.87;46.57;94700.13;4950066;28;20589;-77
2021/07/12 07:12:47;;;;;;;5.22;4.80;;;;;;;29.99;47.06;94698.03;4952609;28;20626;-76
2021/07/12 07:15:13;;;;;;;6.97;5.25;;;;;;;29.39;46.70;94702.63;4965006;28;20046;-77
2021/07/12 07:17:38;;;;;;;6.40;5.20;;;;;;;29.42;47.97;94700.16;4966217;28;20037;-76
2021/07/12 07:20:05;;;;;;;5.95;5.28;;;;;;;29.52;49.79;94705.31;4933565;28;20480;-78
2021/07/12 07:22:30;;;;;;;6.10;5.57;;;;;;;28.64;49.92;94700.84;4948588;28;20393;-77
2021/07/12 07:24:56;;;;;;;8.48;6.03;;;;;;;28.92;48.45;94703.66;4965345;28;20050;-74
2021/07/12 07:27:21;;;;;;;6.00;5.47;;;;;;;29.03;49.01;94702.38;4945544;28;20042;-73
2021/07/12 07:29:46;;;;;;;5.88;5.38;;;;;;;29.02;48.97;94703.50;4949910;28;20019;-74
2021/07/12 07:32:12;;;;;;;7.43;6.45;;;;;;;28.41;51.20;94699.06;4965855;28;20034;-74
2021/07/12 07:34:38;;;;;;;7.32;6.68;;;;;;;27.10;52.60;94700.53;4967025;28;20078;-74
2021/07/12 07:37:03;;;;;;;6.95;6.22;;;;;;;28.76;50.84;94697.78;4967215;28;20041;-75
2021/07/12 07:39:29;;;;;;;6.57;6.05;;;;;;;28.92;50.29;94695.66;4950908;28;20027;-77
2021/07/12 07:41:55;;;;;;;6.40;5.90;;;;;;;28.96;49.35;94700.09;4952363;28;20058;-74
2021/07/12 07:44:21;;;;;;;7.53;6.53;;;;;;;28.69;49.48;94695.47;4962712;28;20026;-74
2021/07/12 07:46:46;;;;;;;6.40;5.80;;;;;;;30.12;47.55;94694.53;4967903;28;20034;-73
2021/07/12 07:49:12;;;;;;;6.60;5.97;;;;;;;28.68;51.59;94693.09;4967839;28;20520;-74
2021/07/12 07:51:37;;;;;;;8.65;5.32;;;;;;;29.20;51.30;94700.78;4943595;28;20498;-76
2021/07/12 07:54:07;;;;;;;6.85;6.35;;;;;;;30.75;48.04;94703.34;4966085;28;20238;-76
2021/07/12 07:56:33;;;;;;;6.55;5.35;;;;;;;30.07;45.66;94697.31;4965842;28;20034;-76
2021/07/12 07:58:58;;;;;;;6.30;5.80;;;;;;;30.13;44.48;94688.91;4962551;28;20027;-76
2021/07/12 08:01:24;;;;;;;6.43;5.93;;;;;;;29.97;45.58;94694.84;4948665;28;20046;-75
2021/07/12 08:03:50;;;;;;;5.63;5.22;;;;;;;29.47;44.88;94694.72;4950360;28;20027;-75
2021/07/12 08:06:18;;;;;;;8.50;5.50;;;;;;;29.19;46.15;94695.72;4933883;28;20146;-74
2021/07/12 08:08:44;;;;;;;6.10;5.50;;;;;;;30.33;46.01;94679.66;4952166;28;20488;-75
2021/07/12 08:11:10;;;;;;;5.50;5.00;;;;;;;30.99;43.59;94668.25;4966702;28;20317;-75
2021/07/12 08:13:36;;;;;;;6.53;5.47;;;;;;;30.73;44.20;94692.13;4950565;28;20504;-75
2021/07/12 08:16:01;;;;;;;5.95;5.45;;;;;;;30.58;44.60;94684.47;4967144;28;20034;-75
2021/07/12 08:18:27;;;;;;;6.60;6.00;;;;;;;30.37;47.03;94688.66;4965372;28;20023;-76
2021/07/12 08:20:52;;;;;;;10.18;6.13;;;;;;;27.63;48.08;94685.38;4934625;28;20038;-73
2021/07/12 08:23:19;;;;;;;6.20;5.70;;;;;;;28.20;47.97;94685.22;4932065;28;20036;-75
2021/07/12 08:25:44;;;;;;;7.35;5.10;;;;;;;29.56;46.96;94687.63;4950714;28;20039;-75
2021/07/12 08:28:10;;;;;;;6.43;5.45;;;;;;;28.73;48.93;94685.81;4939610;28;20451;-76
2021/07/12 08:30:36;;;;;;;5.47;5.07;;;;;;;29.80;45.74;94687.41;4964696;28;20042;-76
2021/07/12 08:33:01;;;;;;;5.75;4.78;;;;;;;30.07;45.92;94690.09;4948137;28;20039;-75
2021/07/12 08:35:27;;;;;;;6.00;5.13;;;;;;;29.19;44.64;94683.16;4956639;28;20026;-75
2021/07/12 08:37:52;;;;;;;6.07;5.68;;;;;;;29.65;46.47;94680.50;4972725;28;20030;-76
2021/07/12 08:40:20;;;;;;;6.22;5.72;;;;;;;29.65;45.72;94679.69;4966525;28;20051;-75
2021/07/12 08:42:48;;;;;;;5.53;5.03;;;;;;;30.39;44.72;94686.47;4939737;28;20503;-76
2021/07/12 08:45:14;;;;;;;5.75;5.15;;;;;;;28.68;46.59;94669.88;4972321;28;20113;-74
2021/07/12 08:47:39;;;;;;;5.50;5.10;;;;;;;29.66;46.00;94673.28;4951932;28;20109;-75
2021/07/12 08:50:05;;;;;;;5.25;4.85;;;;;;;29.89;42.96;94680.34;4973007;28;20033;-76
2021/07/12 08:52:30;;;;;;;5.30;4.90;;;;;;;29.58;45.87;94679.28;4956213;28;20030;-78
2021/07/12 08:54:56;;;;;;;5.50;5.20;;;;;;;30.01;44.89;94682.50;4968408;28;20416;-75
2021/07/12 08:57:21;;;;;;;5.53;5.13;;;;;;;28.71;44.44;94676.50;4963173;28;20038;-75
2021/07/12 08:59:47;;;;;;;5.13;4.72;;;;;;;29.88;44.99;94668.06;4968919;28;20480;-75
2021/07/12 09:02:14;;;;;;;6.32;5.03;;;;;;;29.55;43.81;94679.88;4952082;28;20050;-75
2021/07/12 09:04:49;;;;;;;5.47;4.97;;;;;;;29.69;44.34;94681.50;4931024;28;20030;-76
2021/07/12 09:07:21;;;;;;;6.05;5.55;;;;;;;29.77;43.45;94680.78;4988183;28;20527;-75
2021/07/12 09:10:14;;;;;;;6.50;4.72;;;;;;;30.20;42.61;94680.47;4974631;28;20027;-75
2021/07/12 09:12:50;;;;;;;4.80;4.40;;;;;;;29.36;43.15;94677.31;4958705;28;20045;-76
2021/07/12 09:15:18;;;;;;;4.78;4.45;;;;;;;29.43;43.15;94676.91;4948471;28;20678;-75
2021/07/12 09:17:48;;;;;;;5.70;4.75;;;;;;;29.98;43.18;94683.09;4960967;28;20035;-75
2021/07/12 09:20:30;;;;;;;6.05;5.05;;;;;;;29.49;42.81;94675.72;4951507;28;20079;-75
2021/07/12 09:22:56;;;;;;;5.07;4.57;;;;;;;29.57;43.73;94673.16;4965274;28;20093;-76
2021/07/12 09:25:21;;;;;;;4.95;4.43;;;;;;;29.62;40.23;94678.41;4955112;28;20027;-77
2021/07/12 09:27:54;;;;;;;7.15;4.13;;;;;;;29.12;41.80;94682.00;4968295;28;20026;-75
2021/07/12 09:30:21;;;;;;;5.10;4.70;;;;;;;30.25;40.77;94683.03;4951391;28;20039;-75
2021/07/12 09:32:47;;;;;;;4.32;4.03;;;;;;;30.10;40.10;94678.81;4949824;28;20093;-75
2021/07/12 09:35:16;;;;;;;5.05;4.65;;;;;;;30.37;42.57;94677.19;4933682;28;20662;-75
2021/07/12 09:37:48;;;;;;;5.30;4.60;;;;;;;30.39;40.19;94680.34;4962724;28;20035;-75
2021/07/12 09:40:15;;;;;;;4.20;3.88;;;;;;;30.13;39.71;94691.56;4948520;28;20097;-74
2021/07/12 09:42:42;;;;;;;3.85;3.55;;;;;;;29.79;39.91;94685.84;4975798;28;20488;-78
2021/07/12 09:45:08;;;;;;;4.70;3.72;;;;;;;30.09;39.30;94679.91;4960738;28;20022;-76
2021/07/12 09:47:35;;;;;;;4.68;4.38;;;;;;;29.48;39.64;94685.63;4932491;28;20125;-75
2021/07/12 09:50:04;;;;;;;4.85;4.10;;;;;;;29.96;39.98;94686.03;4961156;28;20026;-75
2021/07/12 09:52:40;;;;;;;4.53;4.20;;;;;;;30.01;39.63;94685.16;4961158;28;20030;-79
2021/07/12 09:55:06;;;;;;;4.38;4.07;;;;;;;30.48;40.39;94692.72;4947586;28;20042;-77
2021/07/12 09:57:33;;;;;;;4.45;4.05;;;;;;;30.53;38.53;94689.94;4962996;28;20523;-74
2021/07/12 10:00:05;;;;;;;3.95;3.60;;;;;;;29.92;38.35;94689.63;4965346;28;20026;-76
2021/07/12 10:02:32;;;;;;;5.22;4.63;;;;;;;30.77;40.26;94679.75;4965508;28;20050;-76
2021/07/12 10:05:00;;;;;;;6.63;4.18;;;;;;;30.51;39.43;94686.75;4969488;28;20046;-74
2021/07/12 10:07:26;;;;;;;4.65;4.25;;;;;;;29.54;39.20;94668.41;4951442;28;20053;-76
2021/07/12 10:09:52;;;;;;;4.60;4.15;;;;;;;29.55;40.40;94678.00;4984446;28;20027;-75
2021/07/12 10:12:17;;;;;;;4.60;4.30;;;;;;;30.06;40.64;94682.38;4970537;28;20027;-76
2021/07/12 10:14:43;;;;;;;4.22;3.88;;;;;;;30.54;40.94;94680.81;4970211;28;20475;-76
2021/07/12 10:17:09;;;;;;;5.38;4.03;;;;;;;30.45;41.59;94681.81;4937367;28;20113;-76
2021/07/12 10:19:36;;;;;;;4.95;4.57;;;;;;;30.46;41.63;94689.56;4954416;28;20063;-74
2021/07/12 10:22:02;;;;;;;5.43;4.10;;;;;;;30.31;39.12;94677.28;4973477;28;20026;-75
2021/07/12 10:24:33;;;;;;;4.72;4.28;;;;;;;31.32;39.27;94676.81;4948231;28;20043;-75
2021/07/12 10:26:59;;;;;;;5.20;4.30;;;;;;;30.51;38.76;94681.41;4951510;28;20430;-75
2021/07/12 10:29:36;;;;;;;4.72;3.92;;;;;;;29.75;39.00;94672.28;4966207;28;20076;-76
2021/07/12 10:32:14;;;;;;;4.28;3.88;;;;;;;30.29;37.94;94678.66;4940872;28;20510;-75
2021/07/12 10:34:41;;;;;;;4.57;4.10;;;;;;;30.08;38.88;94664.97;4969785;28;20034;-76
2021/07/12 10:37:19;;;;;;;4.97;3.90;;;;;;;30.30;40.55;94666.91;4950300;28;20042;-74
2021/07/12 10:40:10;;;;;;;5.93;3.67;;;;;;;30.55;39.98;94663.69;4953812;28;20023;-74
2021/07/12 10:42:41;;;;;;;4.53;4.20;;;;;;;30.30;40.58;94664.22;4983265;28;20052;-75
2021/07/12 10:45:20;;;;;;;4.75;4.40;;;;;;;30.57;40.68;94653.44;4968768;28;20030;-75
2021/07/12 10:47:54;;;;;;;;;;;;;;;30.37;40.28;94653.13;4952286;28;20030;-75
2021/07/12 10:50:34;;;;;;;4.60;4.20;;;;;;;29.12;41.76;94655.31;4967850;28;19937;-75
2021/07/12 10:53:22;;;;;;;4.88;4.40;;;;;;;29.80;42.28;94655.34;4968609;28;20043;-75
2021/07/12 10:56:07;;;;;;;4.78;4.40;;;;;;;29.59;41.17;94657.66;4954689;28;20049;-74
2021/07/12 10:58:34;;;;;;;7.45;4.38;;;;;;;30.25;42.15;94650.94;4950240;28;20488;-75
2021/07/12 11:01:11;;;;;;;7.15;5.05;;;;;;;29.81;39.80;94667.63;4969453;28;20074;-75
2021/07/12 11:03:49;;;;;;;4.15;3.85;;;;;;;29.68;39.65;94661.19;4948169;28;20035;-77
2021/07/12 11:06:22;;;;;;;4.75;4.18;;;;;;;30.19;39.62;94663.63;4950624;28;20579;-75
2021/07/12 11:08:55;;;;;;;4.18;3.88;;;;;;;29.83;38.61;94662.78;4951688;28;20054;-74
2021/07/12 11:11:20;;;;;;;5.10;3.85;;;;;;;30.41;37.16;94660.25;4951355;28;20034;-75
2021/07/12 11:13:52;;;;;;;4.30;4.00;;;;;;;30.59;37.96;94651.28;4969786;28;20038;-76
2021/07/12 11:16:37;;;;;;;4.40;3.80;;;;;;;30.52;37.13;94658.94;4966374;28;20461;-75
2021/07/12 11:19:19;;;;;;;3.55;3.25;;;;;;;30.77;38.21;94660.22;4957848;28;20558;-76
2021/07/12 11:21:44;;;;;;;4.55;3.90;;;;;;;30.55;36.23;94654.84;4960703;28;20054;-78
2021/07/12 11:24:10;;;;;;;4.60;4.10;;;;;;;30.93;38.62;94655.28;4959621;28;20022;-75
2021/07/12 11:26:38;;;;;;;4.80;3.97;;;;;;;29.48;37.98;94661.59;4983028;28;20062;-76
2021/07/12 11:29:14;;;;;;;5.13;4.65;;;;;;;29.83;37.96;94654.78;4963925;28;20042;-76
2021/07/12 11:31:57;;;;;;;4.10;3.80;;;;;;;30.57;38.07;94648.09;4964390;28;20035;-76
2021/07/12 11:34:27;;;;;;;4.45;4.07;;;;;;;30.77;37.60;94655.66;4963503;28;20134;-76
2021/07/12 11:37:09;;;;;;;4.03;3.60;;;;;;;30.93;38.11;94644.56;4965208;28;20041;-77
2021/07/12 11:39:39;;;;;;;4.55;3.90;;;;;;;31.04;37.96;94646.75;4935058;28;20119;-77
2021/07/12 11:42:30;;;;;;;4.40;4.05;;;;;;;30.79;37.53;94642.00;4951379;28;20041;-78
2021/07/12 11:45:00;;;;;;;3.72;3.42;;;;;;;31.05;37.89;94647.53;4968852;28;20451;-77
2021/07/12 11:47:26;;;;;;;5.07;4.55;;;;;;;30.59;38.92;94637.91;4967691;28;20550;-78
2021/07/12 11:49:54;;;;;;;6.00;3.95;;;;;;;30.34;40.22;94633.13;4969036;28;20475;-77
2021/07/12 11:52:19;;;;;;;4.50;4.20;;;;;;;30.41;39.14;94630.81;4949158;29;20111;-77
2021/07/12 11:54:45;;;;;;;4.43;3.85;;;;;;;30.23;37.74;94626.41;4929817;28;20035;-75
2021/07/12 11:57:14;;;;;;;4.57;4.28;;;;;;;30.27;38.18;94627.41;4969092;28;20027;-77
2021/07/12 11:59:39;;;;;;;4.32;4.03;;;;;;;30.75;37.94;94622.28;4960793;28;20034;-75
2021/07/12 12:02:09;;;;;;;6.68;4.80;;;;;;;30.32;37.17;94624.59;4949048;28;20065;-76
2021/07/12 12:04:52;;;;;;;5.97;4.30;;;;;;;30.77;36.92;94620.06;4949536;28;20038;-76
2021/07/12 12:07:23;;;;;;;4.57;4.07;;;;;;;31.03;39.15;94621.06;4947321;28;20034;-76
2021/07/12 12:09:56;;;;;;;6.03;4.57;;;;;;;30.67;40.21;94615.75;4967587;28;20517;-75
2021/07/12 12:12:24;;;;;;;6.57;4.50;;;;;;;30.61;41.71;94616.19;4966017;28;20033;-75
2021/07/12 12:14:50;;;;;;;6.30;4.82;;;;;;;30.41;40.77;94614.78;4967936;28;20492;-76
2021/07/12 12:17:15;;;;;;;5.95;4.75;;;;;;;30.15;40.12;94621.78;4953310;28;20476;-73
2021/07/12 12:19:41;;;;;;;5.28;4.78;;;;;;;29.83;41.04;94571.97;4970592;28;20035;-75
2021/07/12 12:22:06;;;;;;;10.63;4.82;;;;;;;30.23;39.27;94621.06;4967635;28;20026;-75
2021/07/12 12:24:31;;;;;;;9.48;4.20;;;;;;;30.62;38.07;94620.47;4958041;28;20120;-76
2021/07/12 12:26:57;;;;;;;6.10;4.13;;;;;;;30.61;39.25;94614.31;4970757;28;20053;-76
2021/07/12 12:29:22;;;;;;;4.45;4.13;;;;;;;30.48;38.91;94612.47;4951283;28;20030;-75
2021/07/12 12:31:49;;;;;;;4.38;4.07;;;;;;;30.40;40.35;94621.25;4947843;28;20038;-75
2021/07/12 12:34:14;;;;;;;5.10;4.65;;;;;;;30.52;40.93;94615.34;4957144;28;20076;-75
2021/07/12 12:36:42;;;;;;;6.00;4.50;;;;;;;29.94;39.90;94617.97;4950148;28;20042;-78
2021/07/12 12:39:27;;;;;;;4.88;4.57;;;;;;;29.57;41.92;94611.72;4965862;28;20031;-75
2021/07/12 12:41:55;;;;;;;5.15;4.45;;;;;;;30.12;40.13;94617.03;4963779;28;20644;-74
2021/07/12 12:44:22;;;;;;;5.90;4.25;;;;;;;30.28;39.57;94615.59;4980837;28;20168;-75
2021/07/12 12:46:55;;;;;;;4.88;4.47;;;;;;;30.28;39.87;94616.38;4956633;28;20038;-75
2021/07/12 12:49:31;;;;;;;4.65;4.28;;;;;;;30.41;40.27;94606.00;4967173;28;20026;-75
2021/07/12 12:51:57;;;;;;;5.15;4.65;;;;;;;30.17;40.79;94611.59;4972415;28;20068;-75
2021/07/12 12:54:29;;;;;;;4.88;4.35;;;;;;;30.45;39.50;94605.06;4933048;28;20039;-75
2021/07/12 12:56:56;;;;;;;4.05;3.70;;;;;;;30.19;36.57;94609.38;4949429;28;20038;-75
2021/07/12 12:59:32;;;;;;;7.05;3.75;;;;;;;30.36;39.55;94600.72;4945596;28;20034;-74
2021/07/12 13:02:04;;;;;;;4.95;4.50;;;;;;;30.38;39.52;94603.88;4942658;28;20953;-75
2021/07/12 13:04:44;;;;;;;4.15;3.85;;;;;;;30.33;39.39;94594.91;4956899;28;20026;-76
2021/07/12 13:07:23;;;;;;;4.40;4.00;;;;;;;30.23;39.58;94597.00;4955110;28;20890;-75
2021/07/12 13:10:08;;;;;;;4.43;4.13;;;;;;;30.51;38.99;94587.81;4967025;28;20077;-74
2021/07/12 13:12:44;;;;;;;4.80;4.30;;;;;;;30.53;39.08;94593.66;4959641;28;20045;-73
2021/07/12 13:15:13;;;;;;;3.97;3.67;;;;;;;30.40;39.62;94593.72;4947412;28;20559;-75
2021/07/12 13:17:38;;;;;;;3.97;3.67;;;;;;;30.12;38.42;94593.75;4957345;28;20046;-75
2021/07/12 13:20:08;;;;;;;5.57;3.80;;;;;;;30.25;39.10;94590.25;4974914;28;20030;-75
2021/07/12 13:22:35;;;;;;;4.03;3.80;;;;;;;30.27;38.51;94584.63;4957286;28;20125;-74
2021/07/12 13:25:23;;;;;;;4.60;4.05;;;;;;;30.26;38.61;94583.03;4976387;28;20031;-75
2021/07/12 13:27:56;;;;;;;4.03;3.72;;;;;;;30.49;38.32;94583.88;4958568;28;20020;-75
2021/07/12 13:30:41;;;;;;;4.03;3.63;;;;;;;30.32;37.75;94587.16;4966694;28;20049;-75
2021/07/12 13:33:07;;;;;;;3.95;3.65;;;;;;;30.78;38.62;94576.19;4940448;28;20078;-74
2021/07/12 13:35:32;;;;;;;3.60;3.30;;;;;;;30.39;36.59;94576.84;4960181;28;20049;-75
2021/07/12 13:38:00;;;;;;;4.32;4.03;;;;;;;30.40;36.49;94573.13;4958255;28;20019;-75
2021/07/12 13:40:26;;;;;;;4.15;3.75;;;;;;;30.36;36.21;94576.66;4961932;28;20098;-75
2021/07/12 13:42:52;;;;;;;5.78;3.50;;;;;;;30.32;35.00;94571.13;4941355;28;20019;-74
2021/07/12 13:45:18;;;;;;;3.65;3.45;;;;;;;29.97;34.99;94571.94;4960852;28;20022;-74
2021/07/12 13:47:43;;;;;;;3.88;3.60;;;;;;;30.44;36.28;94573.31;4980841;28;20030;-76
2021/07/12 13:50:12;;;;;;;3.15;2.95;;;;;;;30.39;34.92;94578.72;4965073;28;20126;-75
2021/07/12 13:52:39;;;;;;;5.13;3.00;;;;;;;30.25;34.63;94570.75;4940289;28;20162;-75
2021/07/12 13:55:05;;;;;;;5.90;3.63;;;;;;;30.05;35.83;94576.59;4943195;28;20047;-75
2021/07/12 13:57:30;;;;;;;5.63;3.70;;;;;;;30.13;35.40;94573.19;4963663;28;20038;-75
2021/07/12 13:59:57;;;;;;;3.40;3.10;;;;;;;30.13;34.75;94571.31;4978178;28;20014;-72
2021/07/12 14:02:22;;;;;;;3.70;3.50;;;;;;;30.22;36.13;94574.03;4962940;28;20149;-72
2021/07/12 14:04:48;;;;;;;3.50;3.20;;;;;;;30.59;37.12;94581.75;4979162;28;20572;-77
2021/07/12 14:07:14;;;;;;;3.38;3.17;;;;;;;30.01;36.43;94567.56;4978555;28;20515;-75
2021/07/12 14:09:40;;;;;;;4.47;3.50;;;;;;;30.25;35.47;94573.41;4977836;28;20089;-76
2021/07/12 14:12:06;;;;;;;3.70;3.40;;;;;;;30.19;36.13;94570.09;4943564;28;20026;-75
2021/07/12 14:14:31;;;;;;;3.30;3.10;;;;;;;30.44;36.75;94574.06;4954008;28;20055;-75
2021/07/12 14:16:57;;;;;;;3.83;3.53;;;;;;;30.14;36.71;94578.22;4942306;28;20047;-75
2021/07/12 14:19:22;;;;;;;4.80;3.67;;;;;;;30.25;37.44;94568.06;4975454;28;20041;-74
2021/07/12 14:21:48;;;;;;;3.70;3.45;;;;;;;30.16;35.82;94567.22;4955722;28;20034;-75
2021/07/12 14:24:13;;;;;;;7.30;3.58;;;;;;;30.25;36.04;94581.44;4979421;28;20030;-75
2021/07/12 14:26:39;;;;;;;5.53;3.05;;;;;;;30.14;35.67;94575.56;4959677;28;20026;-74
2021/07/12 14:29:04;;;;;;;4.18;3.67;;;;;;;30.33;35.94;94570.84;4963799;28;20030;-75
2021/07/12 14:31:30;;;;;;;3.53;3.33;;;;;;;30.14;37.02;94569.41;4974944;28;20041;-75
2021/07/12 14:33:55;;;;;;;4.00;3.75;;;;;;;29.99;37.75;94565.19;4983906;28;20125;-75
2021/07/12 14:36:21;;;;;;;7.22;3.60;;;;;;;30.03;36.87;94568.06;4960573;28;20038;-74
2021/07/12 14:38:47;;;;;;;5.30;3.75;;;;;;;29.84;36.04;94564.75;4979225;28;20381;-75
2021/07/12 14:41:12;;;;;;;4.15;3.85;;;;;;;29.98;37.49;94554.81;4979393;28;20042;-75
2021/07/12 14:43:38;;;;;;;5.25;4.10;;;;;;;29.83;37.12;94560.50;4939924;28;20042;-74
2021/07/12 14:46:04;;;;;;;3.55;3.28;;;;;;;29.99;37.79;94553.75;4957108;28;20082;-76
2021/07/12 14:48:29;;;;;;;3.90;3.55;;;;;;;30.18;36.29;94565.06;4967012;28;20030;-75
2021/07/12 14:50:55;;;;;;;5.53;4.03;;;;;;;30.00;36.50;94561.44;4952088;28;20038;-75
2021/07/12 14:53:20;;;;;;;4.15;3.85;;;;;;;29.90;37.63;94547.50;4969780;28;20051;-75
2021/07/12 14:55:46;;;;;;;6.07;3.50;;;;;;;29.98;37.26;94560.16;4985434;28;20034;-76
2021/07/12 14:58:11;;;;;;;3.38;3.17;;;;;;;30.09;37.56;94556.16;4976786;28;20030;-75
2021/07/12 15:00:37;;;;;;;3.90;3.60;;;;;;;30.10;38.87;94555.06;4968284;28;20049;-75
2021/07/12 15:03:03;;;;;;;3.70;3.42;;;;;;;29.93;38.57;94552.25;4951814;28;20039;-75
2021/07/12 15:05:29;;;;;;;5.40;4.22;;;;;;;29.86;38.77;94552.69;4950992;28;20026;-76
2021/07/12 15:07:57;;;;;;;3.88;3.58;;;;;;;29.80;38.61;94551.16;4950873;28;20420;-76
2021/07/12 15:10:23;;;;;;;5.05;3.80;;;;;;;30.00;39.97;94547.28;4948065;28;20053;-77
2021/07/12 15:12:48;;;;;;;4.40;4.00;;;;;;;29.67;39.14;94549.31;4948861;28;20503;-77
2021/07/12 15:15:14;;;;;;;4.10;3.80;;;;;;;29.70;39.21;94544.16;4977510;28;20035;-77
2021/07/12 15:17:39;;;;;;;5.40;3.90;;;;;;;29.63;38.83;94538.47;4948597;28;20061;-75
2021/07/12 15:20:05;;;;;;;4.15;3.75;;;;;;;29.73;39.91;94543.56;4951110;28;20042;-75
2021/07/12 15:22:34;;;;;;;6.13;4.03;;;;;;;29.59;39.34;94542.81;4950422;28;20082;-76
2021/07/12 15:25:00;;;;;;;4.35;4.05;;;;;;;29.51;39.78;94540.06;4949761;28;20439;-76
2021/07/12 15:27:25;;;;;;;3.85;3.50;;;;;;;29.34;39.30;94550.56;4934731;28;20031;-75
2021/07/12 15:29:51;;;;;;;4.03;3.72;;;;;;;29.50;39.72;94543.81;4952409;28;20399;-76
2021/07/12 15:32:17;;;;;;;4.45;3.80;;;;;;;29.42;40.55;94547.97;4958195;28;20041;-73
2021/07/12 15:34:43;;;;;;;3.83;3.53;;;;;;;29.33;40.90;94549.75;4943640;28;20069;-75
2021/07/12 15:37:08;;;;;;;4.75;3.72;;;;;;;29.32;41.05;94550.03;4966689;28;20479;-74
2021/07/12 15:39:37;;;;;;;4.32;3.92;;;;;;;29.35;40.35;94550.25;4967983;28;20184;-75
2021/07/12 15:42:03;;;;;;;;;;;;;;;29.35;40.81;94542.22;4967050;28;20034;-75
2021/07/12 15:44:28;;;;;;;4.22;3.95;;;;;;;29.24;40.98;94546.19;4964836;28;20300;-74
2021/07/12 15:46:55;;;;;;;4.22;3.92;;;;;;;29.21;40.83;94542.22;4950264;28;20409;-74
2021/07/12 15:49:21;;;;;;;5.25;3.90;;;;;;;29.14;42.20;94539.16;4949617;28;20035;-74
2021/07/12 15:51:46;;;;;;;4.45;3.85;;;;;;;29.08;41.61;94545.69;4947374;28;20027;-74
2021/07/12 15:54:12;;;;;;;4.13;3.72;;;;;;;28.99;40.53;94544.81;4947330;28;20519;-75
2021/07/12 15:56:37;;;;;;;4.00;3.70;;;;;;;28.99;41.03;94539.47;4963576;28;20019;-75
2021/07/12 15:59:03;;;;;;;4.40;4.10;;;;;;;28.95;41.58;94549.13;4965141;28;20500;-74
2021/07/12 16:01:29;;;;;;;5.30;4.00;;;;;;;28.90;41.71;94541.22;4946444;28;20497;-76
2021/07/12 16:03:55;;;;;;;4.63;4.00;;;;;;;28.81;41.77;94540.31;4949802;28;20428;-74
2021/07/12 16:06:20;;;;;;;5.43;4.40;;;;;;;28.78;41.77;94546.25;4965769;28;20027;-74
2021/07/12 16:08:46;;;;;;;5.03;4.28;;;;;;;28.72;42.54;94539.41;4966329;28;20034;-76
2021/07/12 16:11:11;;;;;;;3.90;3.25;;;;;;;28.72;41.46;94542.88;4965728;28;20023;-75
2021/07/12 16:13:37;;;;;;;6.47;4.13;;;;;;;28.59;42.52;94543.63;4966410;28;20030;-74
2021/07/12 16:16:04;;;;;;;4.05;3.78;;;;;;;28.60;43.07;94547.06;4966356;28;20034;-75
2021/07/12 16:18:30;;;;;;;4.50;4.10;;;;;;;28.50;43.47;94548.03;4966364;28;20031;-74
2021/07/12 16:20:55;;;;;;;4.03;3.72;;;;;;;28.49;44.78;94554.44;4968772;28;20090;-76
2021/07/12 16:23:21;;;;;;;4.25;3.95;;;;;;;28.45;44.20;94550.78;4965239;28;20023;-73
2021/07/12 16:25:46;;;;;;;3.95;3.65;;;;;;;28.32;44.40;94556.09;4951588;28;20030;-76
2021/07/12 16:28:12;;;;;;;8.02;4.07;;;;;;;28.34;43.80;94554.72;4946615;28;20035;-74
2021/07/12 16:30:37;;;;;;;4.13;3.80;;;;;;;28.18;45.48;94558.69;4963042;28;20497;-76
2021/07/12 16:33:03;;;;;;;4.28;3.97;;;;;;;28.11;45.80;94551.06;4963036;28;20061;-75
2021/07/12 16:35:28;;;;;;;3.97;3.50;;;;;;;28.07;46.05;94549.25;4934944;28;20113;-77
2021/07/12 16:37:54;;;;;;;3.78;3.50;;;;;;;28.02;45.76;94558.09;4950506;28;20046;-76